sensor_id;sensor_type;location;lat;lon;timestamp;temperature;humidity
64501;DHT22;50874;24.150;-110.320;2023-08-08T00:00:41;39.70;97.90
64501;DHT22;50874;24.150;-110.320;2023-08-08T00:03:08;39.60;98.00
64501;DHT22;50874;24.150;-110.320;2023-08-08T00:05:34;39.20;98.40
64501;DHT22;50874;24.150;-110.320;2023-08-08T00:08:01;39.30;98.30
64501;DHT22;50874;24.150;-110.320;2023-08-08T00:10:27;39.30;98.30
64501;DHT22;50874;24.150;-110.320;2023-08-08T00:12:54;39.20;98.30
64501;DHT22;50874;24.150;-110.320;2023-08-08T00:15:20;38.70;98.50
64501;DHT22;50874;24.150;-110.320;2023-08-08T00:17:50;38.80;98.50
64501;DHT22;50874;24.150;-110.320;2023-08-08T00:20:16;39.30;98.20
64501;DHT22;50874;24.150;-110.320;2023-08-08T00:22:42;39.20;98.20
64501;DHT22;50874;24.150;-110.320;2023-08-08T00:25:09;38.90;98.40
64501;DHT22;50874;24.150;-110.320;2023-08-08T00:27:35;38.70;98.80
64501;DHT22;50874;24.150;-110.320;2023-08-08T00:30:08;38.50;98.90
64501;DHT22;50874;24.150;-110.320;2023-08-08T00:32:34;38.30;99.20
64501;DHT22;50874;24.150;-110.320;2023-08-08T00:35:01;38.10;99.40
64501;DHT22;50874;24.150;-110.320;2023-08-08T00:37:27;37.80;99.90
64501;DHT22;50874;24.150;-110.320;2023-08-08T00:39:54;37.60;99.90
64501;DHT22;50874;24.150;-110.320;2023-08-08T00:42:20;37.70;99.90
64501;DHT22;50874;24.150;-110.320;2023-08-08T00:44:47;37.60;99.90
64501;DHT22;50874;24.150;-110.320;2023-08-08T00:47:13;37.30;99.90
64501;DHT22;50874;24.150;-110.320;2023-08-08T00:49:40;37.30;99.90
64501;DHT22;50874;24.150;-110.320;2023-08-08T00:52:12;37.30;99.90
64501;DHT22;50874;24.150;-110.320;2023-08-08T00:54:40;37.20;99.90
64501;DHT22;50874;24.150;-110.320;2023-08-08T00:57:06;37.10;99.90
64501;DHT22;50874;24.150;-110.320;2023-08-08T00:59:37;37.10;99.90
64501;DHT22;50874;24.150;-110.320;2023-08-08T01:02:08;37.10;99.90
64501;DHT22;50874;24.150;-110.320;2023-08-08T01:04:38;36.80;99.90
64501;DHT22;50874;24.150;-110.320;2023-08-08T01:07:20;36.70;99.90
64501;DHT22;50874;24.150;-110.320;2023-08-08T01:10:30;36.60;99.90
64501;DHT22;50874;24.150;-110.320;2023-08-08T01:13:17;36.40;99.90
64501;DHT22;50874;24.150;-110.320;2023-08-08T01:15:46;36.40;99.90
64501;DHT22;50874;24.150;-110.320;2023-08-08T01:18:15;36.00;99.90
64501;DHT22;50874;24.150;-110.320;2023-08-08T01:20:43;35.80;99.90
64501;DHT22;50874;24.150;-110.320;2023-08-08T01:25:51;35.80;99.90
64501;DHT22;50874;24.150;-110.320;2023-08-08T01:28:21;35.80;99.90
64501;DHT22;50874;24.150;-110.320;2023-08-08T01:30:48;35.70;99.90
64501;DHT22;50874;24.150;-110.320;2023-08-08T01:33:15;35.60;99.90
64501;DHT22;50874;24.150;-110.320;2023-08-08T01:35:47;35.60;99.90
64501;DHT22;50874;24.150;-110.320;2023-08-08T01:40:52;35.00;99.90
64501;DHT22;50874;24.150;-110.320;2023-08-08T01:43:20;34.70;99.90
64501;DHT22;50874;24.150;-110.320;2023-08-08T01:45:47;34.80;99.90
64501;DHT22;50874;24.150;-110.320;2023-08-08T01:48:14;34.90;99.90
64501;DHT22;50874;24.150;-110.320;2023-08-08T01:50:40;34.70;99.90
64501;DHT22;50874;24.150;-110.320;2023-08-08T01:53:11;34.60;99.90
64501;DHT22;50874;24.150;-110.320;2023-08-08T01:55:41;34.40;99.90
64501;DHT22;50874;24.150;-110.320;2023-08-08T01:58:17;34.30;99.90
64501;DHT22;50874;24.150;-110.320;2023-08-08T02:00:48;34.30;99.90
64501;DHT22;50874;24.150;-110.320;2023-08-08T02:03:19;34.00;99.90
64501;DHT22;50874;24.150;-110.320;2023-08-08T02:09:09;33.90;99.90
64501;DHT22;50874;24.150;-110.320;2023-08-08T02:11:35;33.70;99.90
64501;DHT22;50874;24.150;-110.320;2023-08-08T02:14:02;33.60;99.90
64501;DHT22;50874;24.150;-110.320;2023-08-08T02:16:28;33.40;99.90
64501;DHT22;50874;24.150;-110.320;2023-08-08T02:18:55;33.50;99.90
64501;DHT22;50874;24.150;-110.320;2023-08-08T02:21:21;33.50;99.90
64501;DHT22;50874;24.150;-110.320;2023-08-08T02:23:48;33.40;99.90
64501;DHT22;50874;24.150;-110.320;2023-08-08T02:26:14;33.30;99.90
64501;DHT22;50874;24.150;-110.320;2023-08-08T02:28:41;33.20;99.90
64501;DHT22;50874;24.150;-110.320;2023-08-08T02:31:07;33.20;99.90
64501;DHT22;50874;24.150;-110.320;2023-08-08T02:33:34;33.20;99.90
64501;DHT22;50874;24.150;-110.320;2023-08-08T02:36:00;32.90;99.90
64501;DHT22;50874;24.150;-110.320;2023-08-08T02:38:27;32.90;99.90
64501;DHT22;50874;24.150;-110.320;2023-08-08T02:40:53;32.90;99.90
64501;DHT22;50874;24.150;-110.320;2023-08-08T02:43:20;32.90;99.90
64501;DHT22;50874;24.150;-110.320;2023-08-08T02:45:46;32.90;99.90
64501;DHT22;50874;24.150;-110.320;2023-08-08T02:48:13;32.70;99.90
64501;DHT22;50874;24.150;-110.320;2023-08-08T02:50:39;32.60;99.90
64501;DHT22;50874;24.150;-110.320;2023-08-08T02:53:05;32.40;99.90
64501;DHT22;50874;24.150;-110.320;2023-08-08T02:55:32;32.40;99.90
64501;DHT22;50874;24.150;-110.320;2023-08-08T02:57:58;32.40;99.90
64501;DHT22;50874;24.150;-110.320;2023-08-08T03:00:25;32.30;99.90
64501;DHT22;50874;24.150;-110.320;2023-08-08T03:02:51;32.20;99.90
64501;DHT22;50874;24.150;-110.320;2023-08-08T03:05:17;32.10;99.90
64501;DHT22;50874;24.150;-110.320;2023-08-08T03:07:44;32.10;99.90
64501;DHT22;50874;24.150;-110.320;2023-08-08T03:10:11;32.20;99.90
64501;DHT22;50874;24.150;-110.320;2023-08-08T03:12:38;32.30;99.90
64501;DHT22;50874;24.150;-110.320;2023-08-08T03:15:06;32.30;99.90
64501;DHT22;50874;24.150;-110.320;2023-08-08T03:17:33;32.50;99.90
64501;DHT22;50874;24.150;-110.320;2023-08-08T03:19:59;32.30;99.90
64501;DHT22;50874;24.150;-110.320;2023-08-08T03:22:25;32.20;99.90
64501;DHT22;50874;24.150;-110.320;2023-08-08T03:24:52;32.10;99.90
64501;DHT22;50874;24.150;-110.320;2023-08-08T03:27:18;32.10;99.90
64501;DHT22;50874;24.150;-110.320;2023-08-08T03:29:45;32.00;99.90
64501;DHT22;50874;24.150;-110.320;2023-08-08T03:32:11;32.00;99.90
64501;DHT22;50874;24.150;-110.320;2023-08-08T03:34:38;32.00;99.90
64501;DHT22;50874;24.150;-110.320;2023-08-08T03:37:04;31.90;99.90
64501;DHT22;50874;24.150;-110.320;2023-08-08T03:39:31;31.80;99.90
64501;DHT22;50874;24.150;-110.320;2023-08-08T03:41:57;31.70;99.90
64501;DHT22;50874;24.150;-110.320;2023-08-08T03:44:24;31.60;99.90
64501;DHT22;50874;24.150;-110.320;2023-08-08T03:46:50;31.70;99.90
64501;DHT22;50874;24.150;-110.320;2023-08-08T03:49:17;31.60;99.90
64501;DHT22;50874;24.150;-110.320;2023-08-08T03:51:44;31.70;99.90
64501;DHT22;50874;24.150;-110.320;2023-08-08T03:54:11;31.50;99.90
64501;DHT22;50874;24.150;-110.320;2023-08-08T03:56:37;31.60;99.90
64501;DHT22;50874;24.150;-110.320;2023-08-08T03:59:03;31.60;99.90
64501;DHT22;50874;24.150;-110.320;2023-08-08T04:01:30;31.60;99.90
64501;DHT22;50874;24.150;-110.320;2023-08-08T04:03:56;31.50;99.90
64501;DHT22;50874;24.150;-110.320;2023-08-08T04:06:23;31.50;99.90
64501;DHT22;50874;24.150;-110.320;2023-08-08T04:08:49;31.50;99.90
64501;DHT22;50874;24.150;-110.320;2023-08-08T04:11:16;31.30;99.90
64501;DHT22;50874;24.150;-110.320;2023-08-08T04:13:43;31.20;99.90
64501;DHT22;50874;24.150;-110.320;2023-08-08T04:16:09;31.20;99.90
64501;DHT22;50874;24.150;-110.320;2023-08-08T04:18:36;31.20;99.90
64501;DHT22;50874;24.150;-110.320;2023-08-08T04:21:02;31.10;99.90
64501;DHT22;50874;24.150;-110.320;2023-08-08T04:23:29;31.20;99.90
64501;DHT22;50874;24.150;-110.320;2023-08-08T04:25:56;31.20;99.90
64501;DHT22;50874;24.150;-110.320;2023-08-08T04:28:22;31.10;99.90
64501;DHT22;50874;24.150;-110.320;2023-08-08T04:30:49;31.10;99.90
64501;DHT22;50874;24.150;-110.320;2023-08-08T04:33:15;31.00;99.90
64501;DHT22;50874;24.150;-110.320;2023-08-08T04:35:42;31.00;99.90
64501;DHT22;50874;24.150;-110.320;2023-08-08T04:38:09;31.10;99.90
64501;DHT22;50874;24.150;-110.320;2023-08-08T04:40:35;31.10;99.90
64501;DHT22;50874;24.150;-110.320;2023-08-08T04:43:01;31.10;99.90
64501;DHT22;50874;24.150;-110.320;2023-08-08T04:45:28;31.00;99.90
64501;DHT22;50874;24.150;-110.320;2023-08-08T04:47:55;31.00;99.90
64501;DHT22;50874;24.150;-110.320;2023-08-08T04:53:51;30.90;99.90
64501;DHT22;50874;24.150;-110.320;2023-08-08T04:56:17;30.90;99.90
64501;DHT22;50874;24.150;-110.320;2023-08-08T04:58:44;30.90;99.90
64501;DHT22;50874;24.150;-110.320;2023-08-08T05:01:11;30.90;99.90
64501;DHT22;50874;24.150;-110.320;2023-08-08T05:03:40;30.90;99.90
64501;DHT22;50874;24.150;-110.320;2023-08-08T05:06:07;30.90;99.90
64501;DHT22;50874;24.150;-110.320;2023-08-08T05:08:34;30.80;99.90
64501;DHT22;50874;24.150;-110.320;2023-08-08T05:11:00;30.80;99.90
64501;DHT22;50874;24.150;-110.320;2023-08-08T05:13:27;30.70;99.90
64501;DHT22;50874;24.150;-110.320;2023-08-08T05:15:53;30.60;99.90
64501;DHT22;50874;24.150;-110.320;2023-08-08T05:18:20;30.60;99.90
64501;DHT22;50874;24.150;-110.320;2023-08-08T05:20:46;30.70;99.90
64501;DHT22;50874;24.150;-110.320;2023-08-08T05:23:13;30.70;99.90
64501;DHT22;50874;24.150;-110.320;2023-08-08T05:25:40;30.60;99.90
64501;DHT22;50874;24.150;-110.320;2023-08-08T05:28:06;30.60;99.90
64501;DHT22;50874;24.150;-110.320;2023-08-08T05:30:33;30.60;99.90
64501;DHT22;50874;24.150;-110.320;2023-08-08T05:33:00;30.50;99.90
64501;DHT22;50874;24.150;-110.320;2023-08-08T05:35:26;30.40;99.90
64501;DHT22;50874;24.150;-110.320;2023-08-08T05:37:53;30.40;99.90
64501;DHT22;50874;24.150;-110.320;2023-08-08T05:40:19;30.40;99.90
64501;DHT22;50874;24.150;-110.320;2023-08-08T05:42:46;30.30;99.90
64501;DHT22;50874;24.150;-110.320;2023-08-08T05:45:12;30.20;99.90
64501;DHT22;50874;24.150;-110.320;2023-08-08T05:47:39;30.20;99.90
64501;DHT22;50874;24.150;-110.320;2023-08-08T05:50:06;30.20;99.90
64501;DHT22;50874;24.150;-110.320;2023-08-08T05:52:32;30.20;99.90
64501;DHT22;50874;24.150;-110.320;2023-08-08T05:54:59;30.20;99.90
64501;DHT22;50874;24.150;-110.320;2023-08-08T05:57:26;30.10;99.90
64501;DHT22;50874;24.150;-110.320;2023-08-08T05:59:52;30.10;99.90
64501;DHT22;50874;24.150;-110.320;2023-08-08T06:02:19;30.10;99.90
64501;DHT22;50874;24.150;-110.320;2023-08-08T06:04:45;30.10;99.90
64501;DHT22;50874;24.150;-110.320;2023-08-08T06:07:12;30.00;99.90
64501;DHT22;50874;24.150;-110.320;2023-08-08T06:09:38;30.00;99.90
64501;DHT22;50874;24.150;-110.320;2023-08-08T06:12:05;30.00;99.90
64501;DHT22;50874;24.150;-110.320;2023-08-08T06:14:32;30.00;99.90
64501;DHT22;50874;24.150;-110.320;2023-08-08T06:16:58;30.00;99.90
64501;DHT22;50874;24.150;-110.320;2023-08-08T06:19:25;29.90;99.90
64501;DHT22;50874;24.150;-110.320;2023-08-08T06:21:52;30.00;99.90
64501;DHT22;50874;24.150;-110.320;2023-08-08T06:24:18;29.90;99.90
64501;DHT22;50874;24.150;-110.320;2023-08-08T06:26:45;29.90;99.90
64501;DHT22;50874;24.150;-110.320;2023-08-08T06:29:11;29.90;99.90
64501;DHT22;50874;24.150;-110.320;2023-08-08T06:31:39;29.90;99.90
64501;DHT22;50874;24.150;-110.320;2023-08-08T06:34:07;29.80;99.90
64501;DHT22;50874;24.150;-110.320;2023-08-08T06:36:33;29.80;99.90
64501;DHT22;50874;24.150;-110.320;2023-08-08T06:39:00;29.80;99.90
64501;DHT22;50874;24.150;-110.320;2023-08-08T06:41:26;29.80;99.90
64501;DHT22;50874;24.150;-110.320;2023-08-08T06:43:52;29.90;99.90
64501;DHT22;50874;24.150;-110.320;2023-08-08T06:46:19;29.80;99.90
64501;DHT22;50874;24.150;-110.320;2023-08-08T06:48:46;29.80;99.90
64501;DHT22;50874;24.150;-110.320;2023-08-08T06:51:13;29.90;99.90
64501;DHT22;50874;24.150;-110.320;2023-08-08T06:53:40;29.90;99.90
64501;DHT22;50874;24.150;-110.320;2023-08-08T06:56:07;29.90;99.90
64501;DHT22;50874;24.150;-110.320;2023-08-08T06:58:33;29.80;99.90
64501;DHT22;50874;24.150;-110.320;2023-08-08T07:00:59;29.80;99.90
64501;DHT22;50874;24.150;-110.320;2023-08-08T07:03:26;29.80;99.90
64501;DHT22;50874;24.150;-110.320;2023-08-08T07:05:52;29.80;99.90
64501;DHT22;50874;24.150;-110.320;2023-08-08T07:08:21;29.80;99.90
64501;DHT22;50874;24.150;-110.320;2023-08-08T07:10:48;29.70;99.90
64501;DHT22;50874;24.150;-110.320;2023-08-08T07:13:14;29.70;99.90
64501;DHT22;50874;24.150;-110.320;2023-08-08T07:15:41;29.60;99.90
64501;DHT22;50874;24.150;-110.320;2023-08-08T07:18:08;29.60;99.90
64501;DHT22;50874;24.150;-110.320;2023-08-08T07:20:35;29.60;99.90
64501;DHT22;50874;24.150;-110.320;2023-08-08T07:23:01;29.60;99.90
64501;DHT22;50874;24.150;-110.320;2023-08-08T07:25:28;29.70;99.90
64501;DHT22;50874;24.150;-110.320;2023-08-08T07:27:55;29.70;99.90
64501;DHT22;50874;24.150;-110.320;2023-08-08T07:30:21;29.60;99.90
64501;DHT22;50874;24.150;-110.320;2023-08-08T07:32:48;29.70;99.90
64501;DHT22;50874;24.150;-110.320;2023-08-08T07:35:14;29.70;99.90
64501;DHT22;50874;24.150;-110.320;2023-08-08T07:37:41;29.60;99.90
64501;DHT22;50874;24.150;-110.320;2023-08-08T07:40:19;29.60;99.90
64501;DHT22;50874;24.150;-110.320;2023-08-08T07:42:46;29.60;99.90
64501;DHT22;50874;24.150;-110.320;2023-08-08T07:45:13;29.60;99.90
64501;DHT22;50874;24.150;-110.320;2023-08-08T07:47:42;29.50;99.90
64501;DHT22;50874;24.150;-110.320;2023-08-08T07:50:09;29.40;99.90
64501;DHT22;50874;24.150;-110.320;2023-08-08T07:52:36;29.40;99.90
64501;DHT22;50874;24.150;-110.320;2023-08-08T07:55:03;29.40;99.90
64501;DHT22;50874;24.150;-110.320;2023-08-08T07:57:31;29.40;99.90
64501;DHT22;50874;24.150;-110.320;2023-08-08T08:00:01;29.30;99.90
64501;DHT22;50874;24.150;-110.320;2023-08-08T08:02:33;29.30;99.90
64501;DHT22;50874;24.150;-110.320;2023-08-08T08:05:00;29.20;99.90
64501;DHT22;50874;24.150;-110.320;2023-08-08T08:07:26;29.20;99.90
64501;DHT22;50874;24.150;-110.320;2023-08-08T08:09:53;29.20;99.90
64501;DHT22;50874;24.150;-110.320;2023-08-08T08:12:19;29.20;99.90
64501;DHT22;50874;24.150;-110.320;2023-08-08T08:14:46;29.20;99.90
64501;DHT22;50874;24.150;-110.320;2023-08-08T08:17:12;29.20;99.90
64501;DHT22;50874;24.150;-110.320;2023-08-08T08:19:38;29.20;99.90
64501;DHT22;50874;24.150;-110.320;2023-08-08T08:22:05;29.20;99.90
64501;DHT22;50874;24.150;-110.320;2023-08-08T08:24:31;29.20;99.90
64501;DHT22;50874;24.150;-110.320;2023-08-08T08:26:58;29.20;99.90
64501;DHT22;50874;24.150;-110.320;2023-08-08T08:29:24;29.20;99.90
64501;DHT22;50874;24.150;-110.320;2023-08-08T08:31:51;29.20;99.90
64501;DHT22;50874;24.150;-110.320;2023-08-08T08:34:17;29.20;99.90
64501;DHT22;50874;24.150;-110.320;2023-08-08T08:36:44;29.10;99.90
64501;DHT22;50874;24.150;-110.320;2023-08-08T08:39:10;29.10;99.90
64501;DHT22;50874;24.150;-110.320;2023-08-08T08:41:37;29.00;99.90
64501;DHT22;50874;24.150;-110.320;2023-08-08T08:44:04;29.00;99.90
64501;DHT22;50874;24.150;-110.320;2023-08-08T08:46:32;29.00;99.90
64501;DHT22;50874;24.150;-110.320;2023-08-08T08:49:03;28.90;99.90
64501;DHT22;50874;24.150;-110.320;2023-08-08T08:51:35;29.00;99.90
64501;DHT22;50874;24.150;-110.320;2023-08-08T08:54:02;28.90;99.90
64501;DHT22;50874;24.150;-110.320;2023-08-08T08:56:29;29.00;99.90
64501;DHT22;50874;24.150;-110.320;2023-08-08T08:58:56;28.90;99.90
64501;DHT22;50874;24.150;-110.320;2023-08-08T09:01:24;28.90;99.90
64501;DHT22;50874;24.150;-110.320;2023-08-08T09:03:51;28.90;99.90
64501;DHT22;50874;24.150;-110.320;2023-08-08T09:06:17;28.90;99.90
64501;DHT22;50874;24.150;-110.320;2023-08-08T09:08:45;28.90;99.90
64501;DHT22;50874;24.150;-110.320;2023-08-08T09:11:13;28.90;99.90
64501;DHT22;50874;24.150;-110.320;2023-08-08T09:13:40;28.90;99.90
64501;DHT22;50874;24.150;-110.320;2023-08-08T09:16:08;28.90;99.90
64501;DHT22;50874;24.150;-110.320;2023-08-08T09:18:35;28.90;99.90
64501;DHT22;50874;24.150;-110.320;2023-08-08T09:21:05;28.80;99.90
64501;DHT22;50874;24.150;-110.320;2023-08-08T09:23:31;28.80;99.90
64501;DHT22;50874;24.150;-110.320;2023-08-08T09:25:58;28.80;99.90
64501;DHT22;50874;24.150;-110.320;2023-08-08T09:28:25;28.80;99.90
64501;DHT22;50874;24.150;-110.320;2023-08-08T09:30:51;28.70;99.90
64501;DHT22;50874;24.150;-110.320;2023-08-08T09:33:19;28.70;99.90
64501;DHT22;50874;24.150;-110.320;2023-08-08T09:35:45;28.70;99.90
64501;DHT22;50874;24.150;-110.320;2023-08-08T09:38:12;28.80;99.90
64501;DHT22;50874;24.150;-110.320;2023-08-08T09:40:39;28.80;99.90
64501;DHT22;50874;24.150;-110.320;2023-08-08T09:43:07;28.80;99.90
64501;DHT22;50874;24.150;-110.320;2023-08-08T09:45:38;28.70;99.90
64501;DHT22;50874;24.150;-110.320;2023-08-08T09:48:06;28.70;99.90
64501;DHT22;50874;24.150;-110.320;2023-08-08T09:50:33;28.70;99.90
64501;DHT22;50874;24.150;-110.320;2023-08-08T09:53:02;28.60;99.90
64501;DHT22;50874;24.150;-110.320;2023-08-08T09:55:29;28.60;99.90
64501;DHT22;50874;24.150;-110.320;2023-08-08T09:57:57;28.60;99.90
64501;DHT22;50874;24.150;-110.320;2023-08-08T10:00:27;28.60;99.90
64501;DHT22;50874;24.150;-110.320;2023-08-08T10:02:56;28.60;99.90
64501;DHT22;50874;24.150;-110.320;2023-08-08T10:05:23;28.60;99.90
64501;DHT22;50874;24.150;-110.320;2023-08-08T10:07:50;28.60;99.90
64501;DHT22;50874;24.150;-110.320;2023-08-08T10:10:19;28.50;99.90
64501;DHT22;50874;24.150;-110.320;2023-08-08T10:12:47;28.50;99.90
64501;DHT22;50874;24.150;-110.320;2023-08-08T10:15:14;28.50;99.90
64501;DHT22;50874;24.150;-110.320;2023-08-08T10:17:41;28.50;99.90
64501;DHT22;50874;24.150;-110.320;2023-08-08T10:20:10;28.50;99.90
64501;DHT22;50874;24.150;-110.320;2023-08-08T10:22:45;28.50;99.90
64501;DHT22;50874;24.150;-110.320;2023-08-08T10:27:46;28.50;99.90
64501;DHT22;50874;24.150;-110.320;2023-08-08T10:30:12;28.40;99.90
64501;DHT22;50874;24.150;-110.320;2023-08-08T10:32:42;28.40;99.90
64501;DHT22;50874;24.150;-110.320;2023-08-08T10:35:09;28.40;99.90
64501;DHT22;50874;24.150;-110.320;2023-08-08T10:37:38;28.40;99.90
64501;DHT22;50874;24.150;-110.320;2023-08-08T10:40:05;28.40;99.90
64501;DHT22;50874;24.150;-110.320;2023-08-08T10:42:41;28.40;99.90
64501;DHT22;50874;24.150;-110.320;2023-08-08T10:45:11;28.40;99.90
64501;DHT22;50874;24.150;-110.320;2023-08-08T10:47:41;28.40;99.90
64501;DHT22;50874;24.150;-110.320;2023-08-08T10:50:15;28.40;99.90
64501;DHT22;50874;24.150;-110.320;2023-08-08T10:52:55;28.30;99.90
64501;DHT22;50874;24.150;-110.320;2023-08-08T10:55:35;28.30;99.90
64501;DHT22;50874;24.150;-110.320;2023-08-08T10:58:13;28.30;99.90
64501;DHT22;50874;24.150;-110.320;2023-08-08T11:00:45;28.30;99.90
64501;DHT22;50874;24.150;-110.320;2023-08-08T11:03:14;28.30;99.90
64501;DHT22;50874;24.150;-110.320;2023-08-08T11:05:41;28.30;99.90
64501;DHT22;50874;24.150;-110.320;2023-08-08T11:08:10;28.30;99.90
64501;DHT22;50874;24.150;-110.320;2023-08-08T11:10:40;28.30;99.90
64501;DHT22;50874;24.150;-110.320;2023-08-08T11:13:08;28.30;99.90
64501;DHT22;50874;24.150;-110.320;2023-08-08T11:15:37;28.30;99.90
64501;DHT22;50874;24.150;-110.320;2023-08-08T11:18:05;28.30;99.90
64501;DHT22;50874;24.150;-110.320;2023-08-08T11:20:33;28.30;99.90
64501;DHT22;50874;24.150;-110.320;2023-08-08T11:23:00;28.20;99.90
64501;DHT22;50874;24.150;-110.320;2023-08-08T11:25:28;28.20;99.90
64501;DHT22;50874;24.150;-110.320;2023-08-08T11:27:56;28.20;99.90
64501;DHT22;50874;24.150;-110.320;2023-08-08T11:30:24;28.30;99.90
64501;DHT22;50874;24.150;-110.320;2023-08-08T11:32:54;28.20;99.90
64501;DHT22;50874;24.150;-110.320;2023-08-08T11:35:24;28.20;99.90
64501;DHT22;50874;24.150;-110.320;2023-08-08T11:37:55;28.20;99.90
64501;DHT22;50874;24.150;-110.320;2023-08-08T11:40:23;28.20;99.90
64501;DHT22;50874;24.150;-110.320;2023-08-08T11:42:51;28.20;99.90
64501;DHT22;50874;24.150;-110.320;2023-08-08T11:45:18;28.20;99.90
64501;DHT22;50874;24.150;-110.320;2023-08-08T11:47:54;28.20;99.90
64501;DHT22;50874;24.150;-110.320;2023-08-08T11:50:22;28.20;99.90
64501;DHT22;50874;24.150;-110.320;2023-08-08T11:52:54;28.10;99.90
64501;DHT22;50874;24.150;-110.320;2023-08-08T11:55:26;28.20;99.90
64501;DHT22;50874;24.150;-110.320;2023-08-08T11:57:55;28.20;99.90
64501;DHT22;50874;24.150;-110.320;2023-08-08T12:00:29;28.10;99.90
64501;DHT22;50874;24.150;-110.320;2023-08-08T12:02:56;28.10;99.90
64501;DHT22;50874;24.150;-110.320;2023-08-08T12:05:23;28.10;99.90
64501;DHT22;50874;24.150;-110.320;2023-08-08T12:07:51;28.10;99.90
64501;DHT22;50874;24.150;-110.320;2023-08-08T12:10:22;28.10;99.90
64501;DHT22;50874;24.150;-110.320;2023-08-08T12:12:56;28.10;99.90
64501;DHT22;50874;24.150;-110.320;2023-08-08T12:15:35;28.10;99.90
64501;DHT22;50874;24.150;-110.320;2023-08-08T12:18:03;28.20;99.90
64501;DHT22;50874;24.150;-110.320;2023-08-08T12:20:30;28.20;99.90
64501;DHT22;50874;24.150;-110.320;2023-08-08T12:22:58;28.20;99.90
64501;DHT22;50874;24.150;-110.320;2023-08-08T12:25:26;28.20;99.90
64501;DHT22;50874;24.150;-110.320;2023-08-08T12:27:53;28.20;99.90
64501;DHT22;50874;24.150;-110.320;2023-08-08T12:30:19;28.20;99.90
64501;DHT22;50874;24.150;-110.320;2023-08-08T12:32:46;28.20;99.90
64501;DHT22;50874;24.150;-110.320;2023-08-08T12:35:12;28.20;99.90
64501;DHT22;50874;24.150;-110.320;2023-08-08T12:37:39;28.20;99.90
64501;DHT22;50874;24.150;-110.320;2023-08-08T12:40:06;28.20;99.90
64501;DHT22;50874;24.150;-110.320;2023-08-08T12:42:32;28.30;99.90
64501;DHT22;50874;24.150;-110.320;2023-08-08T12:44:59;28.20;99.90
64501;DHT22;50874;24.150;-110.320;2023-08-08T12:47:25;28.20;99.90
64501;DHT22;50874;24.150;-110.320;2023-08-08T12:49:52;28.20;99.90
64501;DHT22;50874;24.150;-110.320;2023-08-08T12:52:19;28.20;99.90
64501;DHT22;50874;24.150;-110.320;2023-08-08T12:54:45;28.20;99.90
64501;DHT22;50874;24.150;-110.320;2023-08-08T12:57:12;28.20;99.90
64501;DHT22;50874;24.150;-110.320;2023-08-08T12:59:38;28.20;99.90
64501;DHT22;50874;24.150;-110.320;2023-08-08T13:02:05;28.20;99.90
64501;DHT22;50874;24.150;-110.320;2023-08-08T13:04:31;28.30;99.90
64501;DHT22;50874;24.150;-110.320;2023-08-08T13:06:58;28.30;99.90
64501;DHT22;50874;24.150;-110.320;2023-08-08T13:09:24;28.30;99.90
64501;DHT22;50874;24.150;-110.320;2023-08-08T13:11:51;28.30;99.90
64501;DHT22;50874;24.150;-110.320;2023-08-08T13:14:17;28.30;99.90
64501;DHT22;50874;24.150;-110.320;2023-08-08T13:16:44;28.30;99.90
64501;DHT22;50874;24.150;-110.320;2023-08-08T13:19:11;28.40;99.90
64501;DHT22;50874;24.150;-110.320;2023-08-08T13:21:38;28.50;99.90
64501;DHT22;50874;24.150;-110.320;2023-08-08T13:24:05;28.60;99.90
64501;DHT22;50874;24.150;-110.320;2023-08-08T13:26:32;28.70;99.90
64501;DHT22;50874;24.150;-110.320;2023-08-08T13:28:58;29.10;99.90
64501;DHT22;50874;24.150;-110.320;2023-08-08T13:31:25;29.40;99.90
64501;DHT22;50874;24.150;-110.320;2023-08-08T13:33:51;29.50;99.90
64501;DHT22;50874;24.150;-110.320;2023-08-08T13:36:18;29.50;99.90
64501;DHT22;50874;24.150;-110.320;2023-08-08T13:38:44;29.40;99.90
64501;DHT22;50874;24.150;-110.320;2023-08-08T13:41:10;29.30;99.90
64501;DHT22;50874;24.150;-110.320;2023-08-08T13:43:37;29.20;99.90
64501;DHT22;50874;24.150;-110.320;2023-08-08T13:46:04;29.20;99.90
64501;DHT22;50874;24.150;-110.320;2023-08-08T13:48:34;29.20;99.90
64501;DHT22;50874;24.150;-110.320;2023-08-08T13:51:01;29.10;99.90
64501;DHT22;50874;24.150;-110.320;2023-08-08T13:53:27;29.20;99.90
64501;DHT22;50874;24.150;-110.320;2023-08-08T13:55:54;29.20;99.90
64501;DHT22;50874;24.150;-110.320;2023-08-08T13:58:20;29.30;99.90
64501;DHT22;50874;24.150;-110.320;2023-08-08T14:00:51;29.60;99.90
64501;DHT22;50874;24.150;-110.320;2023-08-08T14:03:18;29.70;99.90
64501;DHT22;50874;24.150;-110.320;2023-08-08T14:05:44;29.70;99.90
64501;DHT22;50874;24.150;-110.320;2023-08-08T14:08:11;29.70;99.90
64501;DHT22;50874;24.150;-110.320;2023-08-08T14:10:37;29.60;99.90
64501;DHT22;50874;24.150;-110.320;2023-08-08T14:13:04;29.60;99.90
64501;DHT22;50874;24.150;-110.320;2023-08-08T14:15:30;29.60;99.90
64501;DHT22;50874;24.150;-110.320;2023-08-08T14:17:59;29.70;99.90
64501;DHT22;50874;24.150;-110.320;2023-08-08T14:20:26;29.70;99.90
64501;DHT22;50874;24.150;-110.320;2023-08-08T14:22:53;29.70;99.90
64501;DHT22;50874;24.150;-110.320;2023-08-08T14:25:19;29.80;99.90
64501;DHT22;50874;24.150;-110.320;2023-08-08T14:27:46;30.00;99.90
64501;DHT22;50874;24.150;-110.320;2023-08-08T14:30:13;30.20;99.90
64501;DHT22;50874;24.150;-110.320;2023-08-08T14:32:39;30.30;99.90
64501;DHT22;50874;24.150;-110.320;2023-08-08T14:35:06;30.40;99.90
64501;DHT22;50874;24.150;-110.320;2023-08-08T14:37:35;30.60;99.90
64501;DHT22;50874;24.150;-110.320;2023-08-08T14:40:02;30.70;99.90
64501;DHT22;50874;24.150;-110.320;2023-08-08T14:42:29;31.00;99.90
64501;DHT22;50874;24.150;-110.320;2023-08-08T14:44:55;31.40;99.90
64501;DHT22;50874;24.150;-110.320;2023-08-08T14:47:22;31.50;99.90
64501;DHT22;50874;24.150;-110.320;2023-08-08T14:49:48;31.70;99.90
64501;DHT22;50874;24.150;-110.320;2023-08-08T14:52:17;31.80;99.90
64501;DHT22;50874;24.150;-110.320;2023-08-08T14:54:43;32.30;99.90
64501;DHT22;50874;24.150;-110.320;2023-08-08T14:57:10;32.80;99.90
64501;DHT22;50874;24.150;-110.320;2023-08-08T14:59:36;33.00;99.90
64501;DHT22;50874;24.150;-110.320;2023-08-08T15:02:03;32.80;99.90
64501;DHT22;50874;24.150;-110.320;2023-08-08T15:04:29;32.50;99.90